Time;durP1;ratioP1;P1;durP2;ratioP2;P2;SDS_P1;SDS_P2;PMS_P1;PMS_P2;Temp;Humidity;BMP_temperature;BMP_pressure;BME280_temperature;BME280_humidity;BME280_pressure;Samples;Min_cycle;Max_cycle;Signal;HPM_P1;HPM_P2
2023/01/11 00:03:01;;;;;;;46.30;21.80;;;;;;;5.80;100.00;99248.83;67857;1278;1016475;-60
2023/01/11 00:06:05;;;;;;;53.50;22.60;;;;;;;5.80;100.00;99245.56;67799;1277;1016392;-60
2023/01/11 00:09:08;;;;;;;47.70;22.60;;;;;;;5.81;100.00;99244.30;67799;1278;1019626;-60
2023/01/11 00:12:13;;;;;;;50.70;24.60;;;;;;;5.78;100.00;99242.84;67861;1277;1016475;-60
2023/01/11 00:15:15;;;;;;;49.50;22.10;;;;;;;5.70;100.00;99250.73;67833;1277;1016418;-60
2023/01/11 00:18:18;;;;;;;46.90;23.70;;;;;;;5.72;100.00;99253.44;67837;1278;1016961;-60
2023/01/11 00:21:21;;;;;;;48.10;22.30;;;;;;;5.69;100.00;99254.43;67814;1278;1016722;-60
2023/01/11 00:24:24;;;;;;;;;;;;;;;5.70;100.00;99256.64;67801;1278;1016095;-60
2023/01/11 00:27:26;;;;;;;49.60;23.90;;;;;;;5.74;100.00;99250.98;67857;1278;1016260;-60
2023/01/11 00:30:29;;;;;;;53.10;25.80;;;;;;;5.88;100.00;99258.44;67847;1278;1016420;-60
2023/01/11 00:33:31;;;;;;;49.70;24.60;;;;;;;5.92;100.00;99265.96;67816;1278;1016497;-60
2023/01/11 00:36:34;;;;;;;53.70;24.30;;;;;;;5.97;100.00;99270.51;67802;1278;1016494;-60
2023/01/11 00:39:36;;;;;;;57.00;26.90;;;;;;;6.00;100.00;99268.84;67834;1278;1016842;-60
2023/01/11 00:49:19;;;;;;;62.50;29.80;;;;;;;6.15;100.00;99264.84;67818;1277;1016314;-60
2023/01/11 00:52:21;;;;;;;64.10;29.10;;;;;;;6.20;100.00;99263.60;67777;1278;1016413;-60
2023/01/11 00:55:24;;;;;;;60.10;28.40;;;;;;;6.31;100.00;99266.69;67800;1278;1018496;-60
2023/01/11 00:58:26;;;;;;;60.30;29.00;;;;;;;6.31;100.00;99267.58;67812;1278;1016331;-60
2023/01/11 01:01:29;;;;;;;61.50;29.40;;;;;;;6.23;100.00;99268.53;67851;1278;1017626;-61
2023/01/11 01:04:31;;;;;;;60.60;29.60;;;;;;;6.24;100.00;99272.67;67842;1278;1016353;-60
2023/01/11 01:07:33;;;;;;;60.90;29.40;;;;;;;6.36;100.00;99274.99;67799;1278;1016267;-60
2023/01/11 01:10:36;;;;;;;57.30;28.40;;;;;;;6.41;100.00;99273.81;67818;1277;1016613;-60
2023/01/11 01:16:58;;;;;;;54.30;26.20;;;;;;;6.28;100.00;99271.83;67791;1278;1016295;-60
2023/01/11 01:20:00;;;;;;;53.00;24.70;;;;;;;6.28;100.00;99279.48;67841;1278;1016221;-61
2023/01/11 01:23:03;;;;;;;54.80;26.00;;;;;;;6.21;100.00;99284.77;67830;1278;1016419;-60
2023/01/11 01:26:05;;;;;;;60.60;27.80;;;;;;;6.19;100.00;99274.05;67861;1277;1018564;-60
2023/01/11 01:29:08;;;;;;;57.40;27.10;;;;;;;6.17;100.00;99271.20;67820;1278;1015774;-60
2023/01/11 01:32:10;;;;;;;59.50;27.50;;;;;;;6.15;100.00;99275.45;67802;1277;1016385;-60
2023/01/11 01:35:13;;;;;;;56.10;26.50;;;;;;;6.17;100.00;99273.97;67824;1278;1019242;-60
2023/01/11 01:38:15;;;;;;;53.70;26.20;;;;;;;6.23;100.00;99276.53;67876;1278;1016458;-60
2023/01/11 01:41:17;;;;;;;58.50;27.20;;;;;;;6.35;100.00;99277.48;67831;1278;1016709;-60
2023/01/11 01:44:20;;;;;;;;;;;;;;;6.41;100.00;99286.14;67810;1278;1016050;-60
2023/01/11 01:47:23;;;;;;;57.80;27.70;;;;;;;6.35;100.00;99287.73;67851;1278;1016313;-60
2023/01/11 01:50:25;;;;;;;55.20;25.90;;;;;;;6.31;100.00;99280.41;67847;1278;1016061;-60
2023/01/11 01:53:28;;;;;;;54.50;25.70;;;;;;;6.32;100.00;99273.27;67865;1277;1016536;-60
2023/01/11 01:56:30;;;;;;;52.20;24.50;;;;;;;6.27;100.00;99268.77;67787;1278;1016444;-61
2023/01/11 01:59:33;;;;;;;49.40;24.30;;;;;;;6.15;100.00;99269.70;67798;1277;1016421;-60
2023/01/11 02:02:35;;;;;;;53.40;26.60;;;;;;;6.19;100.00;99264.36;67864;1277;1018371;-60
2023/01/11 02:05:38;;;;;;;52.20;24.00;;;;;;;6.10;100.00;99266.41;67794;1278;1016431;-60
2023/01/11 02:08:40;;;;;;;53.60;25.40;;;;;;;6.21;100.00;99268.46;67787;1278;1016385;-60
2023/01/11 02:11:43;;;;;;;53.70;25.60;;;;;;;6.18;100.00;99269.39;67861;1278;1016512;-60
2023/01/11 02:14:46;;;;;;;52.80;25.30;;;;;;;6.18;100.00;99269.08;67785;1278;1016475;-61
2023/01/11 02:17:48;;;;;;;53.00;25.30;;;;;;;6.16;100.00;99270.88;67804;1278;1016487;-61
2023/01/11 02:20:51;;;;;;;54.00;25.40;;;;;;;6.13;100.00;99274.12;67834;1278;1016484;-60
2023/01/11 02:23:53;;;;;;;53.40;25.50;;;;;;;6.21;100.00;99267.05;67843;1277;1016252;-60
2023/01/11 02:26:57;;;;;;;53.50;26.20;;;;;;;6.26;100.00;99263.05;67862;1277;1018153;-60
2023/01/11 02:30:00;;;;;;;53.00;25.60;;;;;;;6.52;100.00;99261.23;67787;1278;1016387;-60
2023/01/11 02:33:02;;;;;;;54.80;25.70;;;;;;;6.62;100.00;99261.20;67823;1278;1016304;-60
2023/01/11 02:36:05;;;;;;;60.20;26.70;;;;;;;6.46;100.00;99264.08;67793;1278;1016172;-60
2023/01/11 02:39:07;;;;;;;53.50;27.00;;;;;;;6.51;100.00;99261.61;67816;1278;1016459;-60
2023/01/11 02:45:30;;;;;;;53.60;25.20;;;;;;;6.53;100.00;99250.77;67847;1277;1016132;-61
2023/01/11 02:48:32;;;;;;;56.10;28.30;;;;;;;6.60;100.00;99248.24;67868;1277;1016405;-60
2023/01/11 02:51:34;;;;;;;58.60;28.10;;;;;;;6.73;100.00;99252.11;67831;1277;1016372;-60
2023/01/11 02:54:37;;;;;;;59.60;29.10;;;;;;;6.82;100.00;99249.16;67798;1277;1016492;-60
2023/01/11 02:57:41;;;;;;;57.70;28.00;;;;;;;6.98;100.00;99248.69;67802;1278;1016388;-61
2023/01/11 03:00:44;;;;;;;63.30;29.00;;;;;;;7.02;100.00;99246.65;67850;1277;1016506;-60
2023/01/11 03:03:46;;;;;;;63.80;30.20;;;;;;;7.13;100.00;99243.74;67837;1278;1016304;-60
2023/01/11 03:06:48;;;;;;;66.70;30.70;;;;;;;7.13;100.00;99242.20;67855;1277;1018867;-60
2023/01/11 03:09:51;;;;;;;63.30;29.30;;;;;;;7.20;100.00;99248.87;67793;1278;1017188;-60
2023/01/11 03:12:54;;;;;;;64.20;30.90;;;;;;;7.32;100.00;99252.73;67811;1277;1016126;-60
2023/01/11 03:15:58;;;;;;;62.90;30.20;;;;;;;7.21;100.00;99243.60;67809;1278;1016291;-60
2023/01/11 03:19:01;;;;;;;63.80;30.20;;;;;;;7.20;100.00;99246.08;67837;1278;1018235;-60
2023/01/11 03:22:04;;;;;;;67.10;30.30;;;;;;;7.17;100.00;99249.70;67749;1278;1016544;-60
2023/01/11 03:25:06;;;;;;;68.50;29.50;;;;;;;7.23;100.00;99250.50;67870;1277;1018898;-60
2023/01/11 03:28:09;;;;;;;63.70;29.30;;;;;;;7.28;100.00;99256.73;67854;1278;1016254;-60
2023/01/11 03:31:11;;;;;;;66.40;28.50;;;;;;;7.26;100.00;99256.64;67844;1277;1016424;-60
2023/01/11 03:34:13;;;;;;;68.50;30.20;;;;;;;7.27;100.00;99255.71;67810;1278;1016456;-61
2023/01/11 03:37:16;;;;;;;62.60;30.00;;;;;;;7.57;100.00;99249.82;67806;1278;1016806;-60
2023/01/11 03:40:18;;;;;;;75.80;30.50;;;;;;;7.67;100.00;99247.47;67827;1278;1016287;-61
2023/01/11 03:43:21;;;;;;;68.60;30.80;;;;;;;7.59;100.00;99249.56;67813;1277;1016514;-61
2023/01/11 03:46:23;;;;;;;75.30;31.60;;;;;;;7.56;100.00;99244.11;67869;1278;1016476;-61
2023/01/11 03:49:25;;;;;;;70.30;32.40;;;;;;;7.48;100.00;99247.04;67799;1278;1016720;-60
2023/01/11 03:52:28;;;;;;;75.90;33.20;;;;;;;7.33;100.00;99247.65;67801;1278;1017814;-60
2023/01/11 03:55:30;;;;;;;71.20;32.60;;;;;;;7.30;100.00;99245.34;67828;1278;1016475;-60
2023/01/11 03:58:33;;;;;;;74.50;32.30;;;;;;;7.14;100.00;99242.52;67855;1277;1016439;-61
2023/01/11 04:01:35;;;;;;;74.20;33.70;;;;;;;7.27;100.00;99247.74;67836;1278;1016027;-61
2023/01/11 04:04:38;;;;;;;74.40;32.30;;;;;;;7.39;100.00;99251.59;67838;1278;1016218;-60
2023/01/11 04:07:40;;;;;;;76.70;33.90;;;;;;;7.43;100.00;99254.20;67775;1277;1016410;-60
2023/01/11 04:10:42;;;;;;;79.30;34.60;;;;;;;7.48;100.00;99253.98;67805;1277;1016369;-60
2023/01/11 04:13:45;;;;;;;73.40;32.30;;;;;;;7.42;100.00;99256.33;67825;1278;1016154;-60
2023/01/11 04:16:47;;;;;;;74.90;34.10;;;;;;;7.38;100.00;99256.14;67833;1278;1018922;-60
2023/01/11 04:19:50;;;;;;;81.40;33.80;;;;;;;7.43;100.00;99253.00;67860;1278;1016394;-60
2023/01/11 04:22:52;;;;;;;78.10;34.20;;;;;;;7.39;100.00;99250.90;67806;1277;1016501;-60
2023/01/11 04:25:54;;;;;;;75.60;33.70;;;;;;;7.32;100.00;99249.60;67808;1278;1016427;-60
2023/01/11 04:28:57;;;;;;;75.00;33.40;;;;;;;7.34;100.00;99252.33;67809;1277;1016380;-60
2023/01/11 04:31:59;;;;;;;73.20;32.80;;;;;;;7.39;100.00;99249.50;67813;1277;1016345;-60
2023/01/11 04:35:02;;;;;;;73.30;33.10;;;;;;;7.46;100.00;99253.39;67854;1278;1016354;-60
2023/01/11 04:38:04;;;;;;;70.80;32.50;;;;;;;7.48;100.00;99256.25;67820;1277;1017290;-60
2023/01/11 04:44:27;;;;;;;69.60;31.30;;;;;;;7.29;100.00;99251.63;67782;1277;1016377;-60
2023/01/11 04:47:30;;;;;;;71.00;32.00;;;;;;;7.10;100.00;99248.05;67828;1277;1016322;-60
2023/01/11 04:50:32;;;;;;;75.60;32.20;;;;;;;6.93;100.00;99247.52;67871;1277;1016286;-60
2023/01/11 04:53:34;;;;;;;74.80;32.70;;;;;;;6.77;100.00;99243.63;67815;1277;1015842;-60
2023/01/11 04:56:37;;;;;;;76.90;31.70;;;;;;;6.70;100.00;99240.58;67803;1277;1016130;-60
2023/01/11 04:59:39;;;;;;;67.20;30.80;;;;;;;6.72;100.00;99235.64;67811;1277;1016316;-60
2023/01/11 05:02:42;;;;;;;73.90;32.00;;;;;;;6.80;100.00;99234.80;67863;1278;1017296;-61
2023/01/11 05:05:44;;;;;;;69.00;31.80;;;;;;;6.83;100.00;99232.95;67853;1278;1016279;-60
2023/01/11 05:08:46;;;;;;;74.40;32.50;;;;;;;6.96;100.00;99231.57;67857;1277;1016359;-60
2023/01/11 05:11:49;;;;;;;73.70;32.10;;;;;;;7.19;100.00;99233.45;67804;1277;1016137;-60
2023/01/11 05:14:51;;;;;;;71.10;33.10;;;;;;;7.33;100.00;99226.42;67798;1277;1016013;-60
2023/01/11 05:17:54;;;;;;;75.00;34.90;;;;;;;7.38;100.00;99217.54;67840;1278;1016500;-60
2023/01/11 05:20:56;;;;;;;74.80;34.10;;;;;;;7.23;100.00;99217.10;67869;1277;1016460;-60
2023/01/11 05:23:59;;;;;;;75.60;34.10;;;;;;;7.38;100.00;99212.31;67833;1277;1016365;-60
2023/01/11 05:27:02;;;;;;;73.70;33.10;;;;;;;7.37;100.00;99211.48;67811;1277;1018460;-60
2023/01/11 05:30:05;;;;;;;78.80;35.20;;;;;;;7.45;100.00;99210.11;67850;1277;1016234;-60
2023/01/11 05:33:07;;;;;;;76.30;34.80;;;;;;;7.47;100.00;99205.69;67777;1278;1016545;-61
2023/01/11 05:36:10;;;;;;;75.20;36.20;;;;;;;7.41;100.00;99210.63;67844;1277;1016424;-60
2023/01/11 05:39:13;;;;;;;84.50;39.80;;;;;;;7.40;100.00;99212.40;67820;1277;1016779;-60
2023/01/11 05:42:15;;;;;;;86.90;42.80;;;;;;;7.44;100.00;99211.19;67830;1277;1016365;-60
2023/01/11 05:45:31;;;;;;;75.20;37.00;;;;;;;7.46;100.00;99213.90;67796;1277;1016054;-60
2023/01/11 05:48:33;;;;;;;76.70;35.40;;;;;;;7.45;100.00;99213.57;67781;1277;1016960;-61
2023/01/11 05:51:36;;;;;;;64.80;29.90;;;;;;;7.49;100.00;99213.06;67782;1277;1019613;-61
2023/01/11 05:54:39;;;;;;;68.70;29.70;;;;;;;7.54;100.00;99215.11;67862;1278;1016493;-60
2023/01/11 05:57:42;;;;;;;73.50;32.60;;;;;;;7.65;100.00;99216.39;67826;1277;1016675;-60
2023/01/11 06:00:44;;;;;;;84.60;34.80;;;;;;;7.73;100.00;99215.35;67785;1278;1016516;-61
2023/01/11 06:03:46;;;;;;;95.00;38.90;;;;;;;7.79;100.00;99209.88;67832;1277;1018042;-60
2023/01/11 06:06:49;;;;;;;93.90;39.10;;;;;;;7.85;100.00;99201.64;67856;1277;1016430;-61
2023/01/11 06:09:51;;;;;;;81.20;35.20;;;;;;;7.91;100.00;99203.09;67808;1278;1016448;-61
2023/01/11 06:13:25;;;;;;;78.10;33.00;;;;;;;7.98;100.00;99200.14;67815;1277;1016423;-60
2023/01/11 06:16:17;;;;;;;84.80;35.40;;;;;;;7.95;100.00;99198.54;67851;1278;1016159;-61
2023/01/11 06:19:19;;;;;;;86.50;36.30;;;;;;;7.98;100.00;99200.52;67801;1278;1016406;-61
2023/01/11 06:22:22;;;;;;;73.20;31.50;;;;;;;8.10;100.00;99197.36;67813;1278;1016269;-60
2023/01/11 06:25:24;;;;;;;70.20;29.70;;;;;;;7.96;100.00;99188.44;67861;1278;1016408;-60
2023/01/11 06:28:27;;;;;;;71.10;31.30;;;;;;;7.93;100.00;99178.26;67848;1278;1016483;-60
2023/01/11 06:31:29;;;;;;;67.20;30.40;;;;;;;7.67;100.00;99169.33;67844;1278;1018858;-60
2023/01/11 06:34:32;;;;;;;73.80;32.90;;;;;;;7.53;100.00;99175.68;67799;1278;1016409;-60
2023/01/11 06:37:34;;;;;;;75.60;34.60;;;;;;;7.43;100.00;99176.10;67791;1278;1018157;-60
2023/01/11 06:40:36;;;;;;;74.40;30.20;;;;;;;7.42;100.00;99180.31;67806;1278;1016340;-60
2023/01/11 06:43:40;;;;;;;73.30;31.70;;;;;;;7.38;100.00;99185.17;67852;1278;1016903;-60
2023/01/11 06:46:42;;;;;;;80.20;35.80;;;;;;;7.47;100.00;99188.64;67793;1277;1016230;-60
2023/01/11 06:49:45;;;;;;;67.20;31.10;;;;;;;7.53;100.00;99197.77;67832;1278;1015991;-60
2023/01/11 06:52:47;;;;;;;66.10;28.50;;;;;;;7.54;100.00;99199.30;67813;1278;1016664;-60
2023/01/11 06:55:50;;;;;;;67.00;30.20;;;;;;;7.50;100.00;99204.66;67863;1278;1018882;-60
2023/01/11 06:58:52;;;;;;;75.60;33.40;;;;;;;7.42;100.00;99209.36;67828;1277;1016203;-60
2023/01/11 07:01:55;;;;;;;73.70;33.60;;;;;;;7.34;100.00;99210.73;67823;1278;1017174;-60
2023/01/11 07:04:57;;;;;;;71.20;32.30;;;;;;;7.43;100.00;99212.08;67823;1277;1016248;-60
2023/01/11 07:07:59;;;;;;;68.10;29.90;;;;;;;7.55;100.00;99213.32;67875;1277;1016957;-60
2023/01/11 07:11:02;;;;;;;60.50;26.30;;;;;;;7.71;100.00;99211.09;67855;1278;1016307;-61
2023/01/11 07:14:04;;;;;;;;;;;;;;;7.64;100.00;99208.63;67863;1277;1016517;-60
2023/01/11 07:17:08;;;;;;;57.50;25.10;;;;;;;7.64;100.00;99204.42;67822;1278;1018795;-60
2023/01/11 07:20:11;;;;;;;57.00;25.90;;;;;;;7.49;100.00;99204.57;67810;1277;1016655;-60
2023/01/11 07:23:13;;;;;;;59.30;24.60;;;;;;;7.44;100.00;99204.92;67862;1277;1016458;-60
2023/01/11 07:26:16;;;;;;;57.20;26.40;;;;;;;7.49;100.00;99201.79;67857;1278;1016221;-60
2023/01/11 07:29:19;;;;;;;58.90;26.20;;;;;;;7.36;100.00;99194.45;67821;1277;1016426;-60
2023/01/11 07:32:21;;;;;;;63.50;27.60;;;;;;;7.29;100.00;99195.09;67808;1277;1016080;-60
2023/01/11 07:35:24;;;;;;;59.50;26.00;;;;;;;7.29;100.00;99199.62;67850;1277;1016932;-60
2023/01/11 07:38:28;;;;;;;57.90;25.90;;;;;;;7.29;100.00;99200.15;67809;1277;1016415;-60
2023/01/11 07:45:05;;;;;;;47.80;20.90;;;;;;;7.55;100.00;99198.35;67607;1281;1016586;-60
2023/01/11 07:48:09;;;;;;;52.90;21.20;;;;;;;7.49;100.00;99193.40;67640;1281;1016486;-60
2023/01/11 07:51:12;;;;;;;53.20;23.10;;;;;;;7.43;100.00;99186.17;67838;1278;1016478;-60
2023/01/11 07:54:14;;;;;;;73.60;31.20;;;;;;;7.39;100.00;99184.58;67816;1277;1015935;-60
2023/01/11 07:57:17;;;;;;;55.90;24.00;;;;;;;7.41;100.00;99178.23;67812;1277;1017383;-60
2023/01/11 08:00:19;;;;;;;50.80;22.40;;;;;;;7.50;100.00;99171.77;67807;1277;1017571;-60
2023/01/11 08:03:21;;;;;;;51.10;23.30;;;;;;;7.47;100.00;99171.72;67808;1277;1016414;-60
2023/01/11 08:06:24;;;;;;;56.10;22.70;;;;;;;7.42;100.00;99169.50;67867;1277;1016326;-60
2023/01/11 08:09:26;;;;;;;59.70;24.80;;;;;;;7.52;100.00;99167.34;67846;1278;1016518;-60
2023/01/11 08:15:49;;;;;;;50.90;23.10;;;;;;;7.77;100.00;99168.20;67815;1278;1016104;-60
2023/01/11 08:18:52;;;;;;;50.10;21.20;;;;;;;7.74;100.00;99160.83;67795;1277;1015927;-60
2023/01/11 08:21:54;;;;;;;47.60;20.80;;;;;;;7.81;100.00;99160.52;67860;1277;1016524;-60
2023/01/11 08:24:56;;;;;;;43.50;19.90;;;;;;;7.73;100.00;99157.04;67836;1278;1016519;-60
2023/01/11 08:27:59;;;;;;;47.00;20.70;;;;;;;7.81;100.00;99157.03;67800;1277;1016539;-60
2023/01/11 08:31:01;;;;;;;48.70;20.80;;;;;;;7.86;100.00;99159.08;67804;1278;1018361;-60
2023/01/11 08:34:04;;;;;;;48.40;21.30;;;;;;;7.91;100.00;99160.80;67848;1277;1016291;-61
2023/01/11 08:37:06;;;;;;;45.50;20.90;;;;;;;7.98;100.00;99161.85;67854;1278;1018798;-60
2023/01/11 08:40:09;;;;;;;46.50;20.00;;;;;;;7.78;100.00;99160.48;67825;1278;1016196;-61
2023/01/11 08:43:11;;;;;;;48.40;20.80;;;;;;;7.68;100.00;99162.68;67807;1278;1016391;-60
2023/01/11 08:46:14;;;;;;;53.20;22.80;;;;;;;7.64;100.00;99164.06;67878;1277;1016362;-60
2023/01/11 08:49:16;;;;;;;47.70;20.60;;;;;;;7.51;100.00;99174.70;67827;1277;1016469;-60
2023/01/11 08:52:19;;;;;;;43.60;19.10;;;;;;;7.46;100.00;99179.08;67845;1278;1016394;-61
2023/01/11 08:55:21;;;;;;;44.20;19.50;;;;;;;7.37;100.00;99179.11;67825;1278;1016484;-60
2023/01/11 08:58:24;;;;;;;46.10;18.60;;;;;;;7.32;100.00;99180.71;67808;1277;1018486;-60
2023/01/11 09:01:26;;;;;;;45.60;20.00;;;;;;;7.36;100.00;99182.65;67856;1277;1016454;-60
2023/01/11 09:04:29;;;;;;;44.40;20.10;;;;;;;7.51;100.00;99186.17;67825;1277;1016251;-61
2023/01/11 09:07:31;;;;;;;45.50;20.40;;;;;;;7.58;100.00;99186.25;67800;1278;1016206;-61
2023/01/11 09:10:34;;;;;;;44.40;20.60;;;;;;;7.63;100.00;99184.82;67812;1277;1016416;-61
2023/01/11 09:13:36;;;;;;;40.60;18.90;;;;;;;7.69;100.00;99184.40;67865;1277;1016318;-60
2023/01/11 09:16:38;;;;;;;41.40;18.90;;;;;;;7.55;100.00;99177.14;67861;1277;1016413;-61
2023/01/11 09:19:41;;;;;;;41.60;18.60;;;;;;;7.38;100.00;99172.66;67800;1277;1016019;-60
2023/01/11 09:22:43;;;;;;;42.80;19.30;;;;;;;7.33;100.00;99163.27;67830;1278;1018181;-60
2023/01/11 09:25:46;;;;;;;44.50;18.50;;;;;;;7.37;100.00;99163.11;67824;1278;1016378;-60
2023/01/11 09:28:48;;;;;;;;;;;;;;;7.37;100.00;99165.90;67863;1277;1016445;-61
2023/01/11 09:31:51;;;;;;;42.90;18.90;;;;;;;7.36;100.00;99162.11;67854;1278;1016442;-60
2023/01/11 09:34:56;;;;;;;43.20;18.90;;;;;;;7.31;100.00;99156.58;67827;1277;1016157;-60
2023/01/11 09:38:00;;;;;;;41.30;18.10;;;;;;;7.24;100.00;99152.52;67872;1278;1016155;-61
2023/01/11 09:41:07;;;;;;;40.80;17.60;;;;;;;7.23;100.00;99142.30;67857;1278;1015951;-60
2023/01/11 09:44:13;;;;;;;42.00;17.90;;;;;;;7.29;100.00;99135.80;67837;1277;1018910;-61
2023/01/11 09:47:15;;;;;;;41.20;18.10;;;;;;;7.35;100.00;99139.17;67794;1278;1016222;-60
2023/01/11 09:50:18;;;;;;;42.50;18.90;;;;;;;7.35;100.00;99134.52;67814;1278;1016763;-61
2023/01/11 09:53:23;;;;;;;42.20;18.70;;;;;;;7.43;100.00;99138.49;67853;1278;1016200;-60
2023/01/11 09:56:26;;;;;;;38.30;17.20;;;;;;;7.67;100.00;99144.95;67830;1278;1016339;-61
2023/01/11 09:59:29;;;;;;;35.00;16.30;;;;;;;7.78;100.00;99149.84;67859;1278;1016478;-60
2023/01/11 10:02:33;;;;;;;41.60;15.90;;;;;;;7.81;100.00;99151.66;67812;1278;1015990;-60
2023/01/11 10:05:36;;;;;;;41.90;18.80;;;;;;;7.83;100.00;99146.00;67779;1277;1017656;-60
2023/01/11 10:08:40;;;;;;;38.80;18.00;;;;;;;7.81;100.00;99140.52;67907;1278;1016447;-60
2023/01/11 10:11:43;;;;;;;39.30;18.20;;;;;;;7.80;100.00;99139.67;67853;1278;1016476;-60
2023/01/11 10:14:55;;;;;;;41.40;17.80;;;;;;;7.92;100.00;99139.52;67772;1277;1016497;-60
2023/01/11 10:17:58;;;;;;;37.10;16.80;;;;;;;7.94;100.00;99137.29;67797;1278;1018229;-60
2023/01/11 10:21:00;;;;;;;39.50;18.00;;;;;;;8.00;100.00;99136.71;67805;1278;1016623;-60
2023/01/11 10:24:04;;;;;;;40.20;17.50;;;;;;;8.04;100.00;99127.98;65226;1278;6379655;-60
2023/01/11 10:27:08;;;;;;;39.60;17.80;;;;;;;8.10;100.00;99122.67;67822;1277;1016140;-61
2023/01/11 10:30:31;;;;;;;41.60;16.50;;;;;;;8.11;100.00;99122.27;67817;1278;1016465;-60
2023/01/11 10:33:48;;;;;;;34.50;14.30;;;;;;;8.08;100.00;99118.06;67858;1277;1016239;-60
2023/01/11 10:37:05;;;;;;;33.10;14.50;;;;;;;8.25;100.00;99116.92;67810;1277;1016463;-60
2023/01/11 10:40:30;;;;;;;36.20;16.50;;;;;;;8.33;100.00;99110.27;67792;1278;1016419;-60
2023/01/11 10:43:32;;;;;;;33.20;15.40;;;;;;;8.39;100.00;99103.70;67841;1278;1016466;-60
2023/01/11 10:46:35;;;;;;;34.20;15.30;;;;;;;8.54;100.00;99098.86;67834;1278;1016732;-60
2023/01/11 10:49:37;;;;;;;36.80;17.10;;;;;;;8.49;100.00;99098.91;67794;1278;1016155;-60
2023/01/11 10:52:40;;;;;;;34.40;15.70;;;;;;;8.38;100.00;99096.61;67826;1278;1016400;-60
2023/01/11 10:55:42;;;;;;;;;;;;;;;8.43;100.00;99096.39;67810;1277;1016464;-61
2023/01/11 10:58:45;;;;;;;38.40;16.40;;;;;;;8.56;100.00;99093.17;67818;1278;1016414;-60
2023/01/11 11:01:49;;;;;;;37.60;16.10;;;;;;;8.73;100.00;99088.68;67758;1277;1016484;-60
2023/01/11 11:04:51;;;;;;;37.80;15.90;;;;;;;8.91;100.00;99086.08;67877;1277;1016670;-60
2023/01/11 11:07:54;;;;;;;35.40;15.60;;;;;;;9.06;100.00;99081.27;67872;1278;1017051;-60
2023/01/11 11:10:56;;;;;;;36.00;17.10;;;;;;;9.16;100.00;99076.58;67853;1277;1016460;-60
2023/01/11 11:13:59;;;;;;;36.20;16.80;;;;;;;9.25;100.00;99065.70;67814;1278;1016491;-58
2023/01/11 11:17:01;;;;;;;38.80;17.60;;;;;;;9.34;100.00;99061.86;67770;1278;1016378;-58
2023/01/11 11:20:04;;;;;;;38.10;17.20;;;;;;;9.60;100.00;99053.70;67816;1256;1016297;-59
2023/01/11 11:23:06;;;;;;;40.00;16.70;;;;;;;9.89;100.00;99044.67;67858;1277;1016326;-58
2023/01/11 11:26:09;;;;;;;38.00;17.40;;;;;;;10.03;100.00;99041.45;67845;1278;1015753;-59
2023/01/11 11:29:13;;;;;;;41.20;16.30;;;;;;;9.93;100.00;99035.56;67801;1277;1016787;-58
2023/01/11 11:32:16;;;;;;;38.50;17.80;;;;;;;9.79;100.00;99030.52;67812;1277;1017756;-58
2023/01/11 11:35:18;;;;;;;38.50;16.90;;;;;;;9.58;100.00;99022.44;67848;1278;1016275;-58
2023/01/11 11:38:20;;;;;;;34.90;15.90;;;;;;;9.46;100.00;99017.09;67777;1278;1016654;-58
2023/01/11 11:41:23;;;;;;;37.10;15.30;;;;;;;9.27;100.00;99013.42;67846;1278;1016411;-59
2023/01/11 11:44:25;;;;;;;31.80;14.60;;;;;;;9.25;100.00;99010.87;67836;1278;1016239;-59
2023/01/11 11:47:28;;;;;;;36.40;15.50;;;;;;;9.32;100.00;99013.30;67791;1278;1016458;-58
2023/01/11 11:50:31;;;;;;;;;;;;;;;9.42;100.00;99005.13;67829;1278;1016237;-58
2023/01/11 11:53:33;;;;;;;31.60;13.00;;;;;;;9.46;100.00;99005.79;67831;1278;1015709;-58
2023/01/11 11:56:36;;;;;;;29.00;12.50;;;;;;;9.50;100.00;99005.05;67825;1278;1016615;-58
2023/01/11 11:59:39;;;;;;;28.70;12.70;;;;;;;9.61;100.00;99002.52;67856;1278;1016135;-58
2023/01/11 12:02:42;;;;;;;31.20;13.20;;;;;;;9.59;100.00;98996.50;67808;1278;1016443;-59
2023/01/11 12:05:45;;;;;;;34.80;13.10;;;;;;;9.54;100.00;98987.34;67854;1277;1016310;-58
2023/01/11 12:08:48;;;;;;;30.30;12.60;;;;;;;9.50;100.00;98983.72;67864;1277;1016015;-58
2023/01/11 12:11:51;;;;;;;27.60;11.70;;;;;;;9.57;100.00;98983.75;67837;1278;1016707;-58
2023/01/11 12:14:53;;;;;;;31.30;12.90;;;;;;;9.51;100.00;98973.73;67828;1278;1016902;-58
2023/01/11 12:17:55;;;;;;;32.20;13.90;;;;;;;9.50;100.00;98977.63;67783;1277;1015998;-58
2023/01/11 12:20:58;;;;;;;32.80;13.30;;;;;;;9.40;100.00;98970.63;67791;1278;1016042;-58
2023/01/11 12:24:00;;;;;;;31.40;13.20;;;;;;;9.49;100.00;98970.16;67837;1278;1018030;-58
2023/01/11 12:27:03;;;;;;;32.60;14.10;;;;;;;9.64;100.00;98962.20;67863;1278;1016476;-59
2023/01/11 12:30:07;;;;;;;32.70;12.80;;;;;;;9.61;100.00;98957.14;67838;1278;1016297;-58
2023/01/11 12:33:09;;;;;;;32.90;13.90;;;;;;;9.61;100.00;98949.98;67843;1277;1016674;-58
2023/01/11 12:36:12;;;;;;;30.40;13.30;;;;;;;9.60;100.00;98947.04;67788;1278;1016067;-58
2023/01/11 12:39:15;;;;;;;33.30;13.70;;;;;;;9.62;100.00;98946.63;67778;1278;1018093;-58
2023/01/11 12:42:17;;;;;;;;;;;;;;;9.63;100.00;98947.58;67848;1277;1016437;-58
2023/01/11 12:45:20;;;;;;;31.20;13.00;;;;;;;9.55;100.00;98948.54;67812;1278;1016492;-59
2023/01/11 12:48:23;;;;;;;31.00;14.30;;;;;;;9.54;100.00;98945.13;67768;1278;1016414;-58
2023/01/11 12:51:25;;;;;;;31.80;14.20;;;;;;;9.57;100.00;98944.26;67839;1278;1017437;-58
2023/01/11 12:54:28;;;;;;;;;;;;;;;9.36;100.00;98939.48;67777;1278;1016372;-58
2023/01/11 12:57:30;;;;;;;35.80;14.80;;;;;;;9.38;100.00;98938.64;67794;1278;1016070;-58
2023/01/11 13:00:33;;;;;;;33.70;15.10;;;;;;;9.35;100.00;98933.91;67842;1278;1016253;-58
2023/01/11 13:03:35;;;;;;;36.90;16.20;;;;;;;9.26;100.00;98928.82;67812;1278;1016433;-58
2023/01/11 13:06:38;;;;;;;34.60;15.70;;;;;;;9.34;100.00;98932.21;67812;1278;1016069;-58
2023/01/11 13:09:40;;;;;;;35.80;16.10;;;;;;;9.34;100.00;98933.82;67767;1278;1016656;-59
2023/01/11 13:12:44;;;;;;;36.60;16.90;;;;;;;9.40;100.00;98932.95;67774;1277;1016227;-59
2023/01/11 13:15:47;;;;;;;36.60;15.70;;;;;;;9.20;100.00;98933.48;67791;1278;1016366;-58
2023/01/11 13:18:50;;;;;;;43.30;16.00;;;;;;;9.07;100.00;98931.55;67825;1256;1016433;-59
2023/01/11 13:21:53;;;;;;;31.30;13.80;;;;;;;9.02;100.00;98934.98;67765;1277;1017046;-58
2023/01/11 13:24:55;;;;;;;34.50;13.90;;;;;;;8.83;100.00;98927.59;67854;1278;1016260;-58
2023/01/11 13:27:57;;;;;;;34.30;15.50;;;;;;;8.73;100.00;98924.83;67811;1278;1017132;-58
2023/01/11 13:31:00;;;;;;;33.40;14.60;;;;;;;8.63;100.00;98926.36;67811;1278;1016193;-58
2023/01/11 13:34:02;;;;;;;32.50;14.50;;;;;;;8.54;100.00;98927.35;67784;1278;1016401;-58
2023/01/11 13:37:05;;;;;;;32.70;14.80;;;;;;;8.54;100.00;98920.73;67769;1278;1016234;-58
2023/01/11 13:40:07;;;;;;;32.00;14.90;;;;;;;8.50;100.00;98912.73;67847;1278;1016444;-59
2023/01/11 13:43:19;;;;;;;;;;;;;;;;;;;;;
2023/01/11 13:46:33;;;;;;;32.90;14.20;;;;;;;8.35;100.00;98901.08;67738;1278;1016134;-58
2023/01/11 13:49:36;;;;;;;30.20;13.40;;;;;;;8.32;100.00;98902.28;67767;1254;1016448;-58
2023/01/11 13:52:38;;;;;;;;;;;;;;;8.25;100.00;98896.33;67797;1278;1016523;-58
2023/01/11 13:55:40;;;;;;;32.10;13.40;;;;;;;8.23;100.00;98896.98;67798;1278;1016179;-58
2023/01/11 13:58:43;;;;;;;31.80;14.20;;;;;;;8.09;100.00;98899.96;67750;1277;1016481;-58
2023/01/11 14:01:45;;;;;;;33.00;13.40;;;;;;;7.97;100.00;98910.08;67811;1278;1018376;-58
2023/01/11 14:04:48;;;;;;;32.20;14.20;;;;;;;7.99;100.00;98898.16;67835;1278;1016151;-58
2023/01/11 14:07:50;;;;;;;32.50;14.50;;;;;;;7.95;100.00;98891.91;67842;1278;1016482;-58
2023/01/11 14:10:52;;;;;;;31.60;14.90;;;;;;;7.85;100.00;98891.55;67843;1278;1015978;-58